createdAt,value
2022-10-23T00:01:30.933Z,100.00
2022-10-23T00:04:02.869Z,100.00
2022-10-23T00:06:32.044Z,100.00
2022-10-23T00:08:58.918Z,100.00
2022-10-23T00:11:28.913Z,100.00
2022-10-23T00:13:58.786Z,100.00
2022-10-23T00:16:25.722Z,100.00
2022-10-23T00:18:52.550Z,100.00
2022-10-23T00:21:19.613Z,100.00
2022-10-23T00:23:46.945Z,100.00
2022-10-23T00:26:17.169Z,100.00
2022-10-23T00:28:45.883Z,100.00
2022-10-23T00:31:13.131Z,100.00
2022-10-23T00:33:40.239Z,100.00
2022-10-23T00:36:09.502Z,100.00
2022-10-23T00:38:36.465Z,100.00
2022-10-23T00:41:04.563Z,100.00
2022-10-23T00:43:32.638Z,100.00
2022-10-23T00:45:59.578Z,100.00
2022-10-23T00:48:28.009Z,100.00
2022-10-23T00:50:55.675Z,100.00
2022-10-23T00:53:23.284Z,100.00
2022-10-23T00:55:53.842Z,100.00
2022-10-23T00:58:21.857Z,100.00
2022-10-23T01:00:49.953Z,100.00
2022-10-23T01:03:19.081Z,100.00
2022-10-23T01:05:56.988Z,100.00
2022-10-23T01:08:43.056Z,100.00
2022-10-23T01:11:12.907Z,100.00
2022-10-23T01:13:49.506Z,100.00
2022-10-23T01:16:30.367Z,100.00
2022-10-23T01:19:05.726Z,100.00
2022-10-23T01:21:49.239Z,100.00
2022-10-23T01:24:53.168Z,100.00
2022-10-23T01:27:26.880Z,100.00
2022-10-23T01:30:08.046Z,100.00
2022-10-23T01:32:56.271Z,100.00
2022-10-23T01:35:29.039Z,100.00
2022-10-23T01:38:08.982Z,100.00
2022-10-23T01:40:41.725Z,100.00
2022-10-23T01:43:16.641Z,100.00
2022-10-23T01:45:48.908Z,100.00
2022-10-23T01:48:19.436Z,100.00
2022-10-23T01:50:46.989Z,100.00
2022-10-23T01:53:13.840Z,100.00
2022-10-23T01:58:16.150Z,100.00
2022-10-23T02:00:45.530Z,100.00
2022-10-23T02:03:15.787Z,100.00
2022-10-23T02:05:43.306Z,100.00
2022-10-23T02:08:10.318Z,100.00
2022-10-23T02:10:49.244Z,100.00
2022-10-23T02:13:24.623Z,100.00
2022-10-23T02:16:20.050Z,100.00
2022-10-23T02:18:57.630Z,100.00
2022-10-23T02:21:34.284Z,100.00
2022-10-23T02:24:05.391Z,100.00
2022-10-23T02:26:37.984Z,100.00
2022-10-23T02:29:14.555Z,100.00
2022-10-23T02:31:41.558Z,100.00
2022-10-23T02:34:08.493Z,100.00
2022-10-23T02:36:35.298Z,100.00
2022-10-23T02:39:02.082Z,100.00
2022-10-23T02:42:00.439Z,100.00
2022-10-23T02:44:39.482Z,100.00
2022-10-23T02:47:12.604Z,100.00
2022-10-23T02:50:12.737Z,100.00
2022-10-23T02:52:50.392Z,100.00
2022-10-23T02:55:32.362Z,100.00
2022-10-23T02:58:16.340Z,100.00
2022-10-23T03:00:49.498Z,100.00
2022-10-23T03:03:22.529Z,100.00
2022-10-23T03:05:49.362Z,100.00
2022-10-23T03:08:16.203Z,100.00
2022-10-23T03:10:43.036Z,100.00
2022-10-23T03:13:11.147Z,100.00
2022-10-23T03:15:37.894Z,100.00
2022-10-23T03:18:04.838Z,100.00
2022-10-23T03:20:31.577Z,100.00
2022-10-23T03:22:58.241Z,100.00
2022-10-23T03:25:25.034Z,100.00
2022-10-23T03:27:51.760Z,100.00
2022-10-23T03:30:18.675Z,100.00
2022-10-23T03:32:45.879Z,100.00
2022-10-23T03:35:12.640Z,100.00
2022-10-23T03:37:39.404Z,100.00
2022-10-23T03:40:06.732Z,100.00
2022-10-23T03:42:33.436Z,100.00
2022-10-23T03:45:00.095Z,100.00
2022-10-23T03:47:26.837Z,100.00
2022-10-23T03:49:53.614Z,100.00
2022-10-23T03:52:20.399Z,100.00
2022-10-23T03:54:47.097Z,100.00
2022-10-23T03:57:13.841Z,100.00
2022-10-23T03:59:40.541Z,100.00
2022-10-23T04:02:07.368Z,100.00
2022-10-23T04:04:34.331Z,100.00
2022-10-23T04:07:01.001Z,100.00
2022-10-23T04:09:27.770Z,100.00
2022-10-23T04:11:56.038Z,100.00
2022-10-23T04:14:22.766Z,100.00
2022-10-23T04:16:49.445Z,100.00
2022-10-23T04:19:17.131Z,100.00
2022-10-23T04:21:44.871Z,100.00
2022-10-23T04:24:11.592Z,100.00
2022-10-23T04:26:38.356Z,100.00
2022-10-23T04:29:05.271Z,100.00
2022-10-23T04:31:32.122Z,100.00
2022-10-23T04:33:59.044Z,100.00
2022-10-23T04:36:26.047Z,100.00
2022-10-23T04:38:53.231Z,100.00
2022-10-23T04:41:20.031Z,100.00
2022-10-23T04:43:46.776Z,100.00
2022-10-23T04:46:13.558Z,100.00
2022-10-23T04:48:40.258Z,100.00
2022-10-23T04:51:07.251Z,100.00
2022-10-23T04:53:34.019Z,100.00
2022-10-23T04:56:00.978Z,100.00
2022-10-23T04:58:28.756Z,100.00
2022-10-23T05:00:56.024Z,100.00
2022-10-23T05:03:24.285Z,100.00
2022-10-23T05:05:54.415Z,100.00
2022-10-23T05:08:22.687Z,100.00
2022-10-23T05:10:50.151Z,100.00
2022-10-23T05:13:19.815Z,100.00
2022-10-23T05:15:58.045Z,100.00
2022-10-23T05:18:39.824Z,100.00
2022-10-23T05:21:13.027Z,100.00
2022-10-23T05:23:42.728Z,100.00
2022-10-23T05:26:09.481Z,100.00
2022-10-23T05:28:36.174Z,100.00
2022-10-23T05:31:04.441Z,100.00
2022-10-23T05:33:33.199Z,100.00
2022-10-23T05:36:00.664Z,100.00
2022-10-23T05:38:32.041Z,100.00
2022-10-23T05:40:58.846Z,100.00
2022-10-23T05:43:27.230Z,100.00
2022-10-23T05:45:54.275Z,100.00
2022-10-23T05:48:34.171Z,100.00
2022-10-23T05:51:09.698Z,100.00
2022-10-23T05:53:38.888Z,100.00
2022-10-23T05:56:09.272Z,100.00
2022-10-23T05:58:36.064Z,100.00
2022-10-23T06:01:08.278Z,100.00
2022-10-23T06:03:37.904Z,100.00
2022-10-23T06:06:05.740Z,100.00
2022-10-23T06:08:33.493Z,100.00
2022-10-23T06:11:12.038Z,100.00
2022-10-23T06:13:39.625Z,100.00
2022-10-23T06:16:11.197Z,100.00
2022-10-23T06:18:38.006Z,100.00
2022-10-23T06:21:07.358Z,100.00
2022-10-23T06:23:36.466Z,100.00
2022-10-23T06:26:04.268Z,100.00
2022-10-23T06:28:30.958Z,100.00
2022-10-23T06:30:57.707Z,100.00
2022-10-23T06:33:24.870Z,100.00
2022-10-23T06:35:51.556Z,100.00
2022-10-23T06:38:18.449Z,100.00
2022-10-23T06:40:47.381Z,100.00
2022-10-23T06:43:14.444Z,100.00
2022-10-23T06:45:41.752Z,100.00
2022-10-23T06:48:08.536Z,100.00
2022-10-23T06:50:37.263Z,100.00
2022-10-23T06:53:05.301Z,100.00
2022-10-23T06:55:33.018Z,100.00
2022-10-23T06:57:59.837Z,100.00
2022-10-23T07:00:26.920Z,100.00
2022-10-23T07:02:54.997Z,100.00
2022-10-23T07:05:21.763Z,100.00
2022-10-23T07:07:48.547Z,100.00
2022-10-23T07:10:15.507Z,100.00
2022-10-23T07:12:44.626Z,100.00
2022-10-23T07:15:11.611Z,100.00
2022-10-23T07:17:38.393Z,100.00
2022-10-23T07:20:05.626Z,100.00
2022-10-23T07:22:32.493Z,100.00
2022-10-23T07:24:59.235Z,100.00
2022-10-23T07:27:26.699Z,100.00
2022-10-23T07:29:53.581Z,100.00
2022-10-23T07:32:20.286Z,100.00
2022-10-23T07:34:47.048Z,100.00
2022-10-23T07:37:13.787Z,100.00
2022-10-23T07:39:40.496Z,100.00
2022-10-23T07:42:08.637Z,100.00
2022-10-23T07:44:35.394Z,100.00
2022-10-23T07:47:02.141Z,100.00
2022-10-23T07:49:28.999Z,100.00
2022-10-23T07:51:58.672Z,100.00
2022-10-23T07:54:25.429Z,100.00
2022-10-23T07:56:52.175Z,100.00
2022-10-23T07:59:18.901Z,100.00
2022-10-23T08:01:47.194Z,100.00
2022-10-23T08:04:14.257Z,100.00
2022-10-23T08:06:40.965Z,100.00
2022-10-23T08:09:08.541Z,100.00
2022-10-23T08:11:35.671Z,100.00
2022-10-23T08:14:04.636Z,100.00
2022-10-23T08:16:32.754Z,100.00
2022-10-23T08:18:59.515Z,100.00
2022-10-23T08:21:29.302Z,100.00
2022-10-23T08:23:59.901Z,100.00
2022-10-23T08:26:31.118Z,100.00
2022-10-23T08:29:03.993Z,100.00
2022-10-23T08:31:31.040Z,100.00
2022-10-23T08:34:00.187Z,100.00
2022-10-23T08:36:28.725Z,100.00
2022-10-23T08:38:56.902Z,100.00
2022-10-23T08:41:28.605Z,100.00
2022-10-23T08:44:18.137Z,97.34
2022-10-23T08:46:51.727Z,90.38
2022-10-23T08:49:25.154Z,91.12
2022-10-23T08:51:55.757Z,87.91
2022-10-23T08:54:55.592Z,85.49
2022-10-23T08:57:24.579Z,79.75
2022-10-23T09:00:07.754Z,80.90
2022-10-23T09:02:43.673Z,84.94
2022-10-23T09:05:21.974Z,81.77
2022-10-23T09:08:23.205Z,81.54
2022-10-23T09:11:16.272Z,81.80
2022-10-23T09:14:02.423Z,81.38
2022-10-23T09:16:45.841Z,81.22
2022-10-23T09:19:19.731Z,81.77
2022-10-23T09:21:51.973Z,81.25
2022-10-23T09:24:22.467Z,81.18
2022-10-23T09:26:51.134Z,78.96
2022-10-23T09:29:23.912Z,80.26
2022-10-23T09:31:53.042Z,80.75
2022-10-23T09:34:26.010Z,79.80
2022-10-23T09:37:01.445Z,77.00
2022-10-23T09:39:36.005Z,77.48
2022-10-23T09:42:20.810Z,76.28
2022-10-23T09:44:51.004Z,76.97
2022-10-23T09:47:24.308Z,75.96
2022-10-23T09:49:53.389Z,75.91
2022-10-23T09:52:36.783Z,75.12
2022-10-23T09:55:21.791Z,74.62
2022-10-23T09:57:49.526Z,74.74
2022-10-23T10:00:16.841Z,74.91
2022-10-23T10:02:55.135Z,76.94
2022-10-23T10:05:32.641Z,76.35
2022-10-23T10:08:03.373Z,75.80
2022-10-23T10:10:35.982Z,76.24
2022-10-23T10:13:19.201Z,75.66
2022-10-23T10:15:53.459Z,76.58
2022-10-23T10:18:28.408Z,77.09
2022-10-23T10:21:06.937Z,76.58
2022-10-23T10:24:04.268Z,72.95
2022-10-23T10:26:42.973Z,74.32
2022-10-23T10:29:41.586Z,73.79
2022-10-23T10:32:35.463Z,75.74
2022-10-23T10:35:05.624Z,71.51
2022-10-23T10:37:43.918Z,70.93
2022-10-23T10:40:24.454Z,68.85
2022-10-23T10:43:15.719Z,64.46
2022-10-23T10:45:47.957Z,68.50
2022-10-23T10:48:23.854Z,69.56
2022-10-23T10:51:07.685Z,67.16
2022-10-23T10:53:53.363Z,68.62
2022-10-23T10:56:27.380Z,57.71
2022-10-23T10:59:02.394Z,63.77
2022-10-23T11:01:39.332Z,66.16
2022-10-23T11:04:34.416Z,64.22
2022-10-23T11:07:11.957Z,65.21
2022-10-23T11:09:40.160Z,66.33
2022-10-23T11:12:07.279Z,61.48
2022-10-23T11:14:34.901Z,63.76
2022-10-23T11:17:26.556Z,61.51
2022-10-23T11:20:25.779Z,66.01
2022-10-23T11:23:16.629Z,64.81
2022-10-23T11:26:25.532Z,61.40
2022-10-23T11:29:10.660Z,65.59
2022-10-23T11:32:02.168Z,64.94
2022-10-23T11:35:03.731Z,60.83
2022-10-23T11:37:31.036Z,59.38
2022-10-23T11:40:06.894Z,59.33
2022-10-23T11:42:39.785Z,60.56
2022-10-23T11:45:36.437Z,58.87
2022-10-23T11:48:25.096Z,56.97
2022-10-23T11:50:55.464Z,56.41
2022-10-23T11:53:31.424Z,55.63
2022-10-23T11:56:11.926Z,57.28
2022-10-23T11:58:57.451Z,57.03
2022-10-23T12:01:45.611Z,57.52
2022-10-23T12:04:12.524Z,58.45
2022-10-23T12:06:51.250Z,60.11
2022-10-23T12:09:42.204Z,59.15
2022-10-23T12:12:09.073Z,59.99
2022-10-23T12:14:44.739Z,60.30
2022-10-23T12:17:44.775Z,61.54
2022-10-23T12:20:11.728Z,61.16
2022-10-23T12:22:50.601Z,60.89
2022-10-23T12:25:23.435Z,60.72
2022-10-23T12:28:19.768Z,60.68
2022-10-23T12:31:14.633Z,59.87
2022-10-23T12:33:48.762Z,60.07
2022-10-23T12:36:15.666Z,59.38
2022-10-23T12:38:47.857Z,57.74
2022-10-23T12:41:31.008Z,57.36
2022-10-23T12:44:09.723Z,57.77
2022-10-23T12:46:46.753Z,57.13
2022-10-23T12:49:20.163Z,54.75
2022-10-23T12:51:56.013Z,53.12
2022-10-23T12:54:22.731Z,52.17
2022-10-23T12:56:49.737Z,51.56
2022-10-23T12:59:22.849Z,51.96
2022-10-23T13:01:52.835Z,51.70
2022-10-23T13:04:26.634Z,51.05
2022-10-23T13:06:56.049Z,49.32
2022-10-23T13:09:46.101Z,49.25
2022-10-23T13:12:24.310Z,46.80
2022-10-23T13:15:14.049Z,46.20
2022-10-23T13:17:46.693Z,46.88
2022-10-23T13:20:28.718Z,46.63
2022-10-23T13:23:07.874Z,46.21
2022-10-23T13:25:36.707Z,46.16
2022-10-23T13:28:27.740Z,46.47
2022-10-23T13:31:06.664Z,46.85
2022-10-23T13:33:39.663Z,47.80
2022-10-23T13:36:13.368Z,50.60
2022-10-23T13:39:00.545Z,52.48
2022-10-23T13:41:29.730Z,53.44
2022-10-23T13:43:56.525Z,55.11
2022-10-23T13:46:27.799Z,56.64
2022-10-23T13:48:54.609Z,57.34
2022-10-23T13:51:24.907Z,58.11
2022-10-23T13:53:52.464Z,59.87
2022-10-23T13:56:21.325Z,60.17
2022-10-23T13:58:48.830Z,61.09
2022-10-23T14:01:24.680Z,61.74
2022-10-23T14:03:52.697Z,61.94
2022-10-23T14:06:19.970Z,62.79
2022-10-23T14:08:46.654Z,63.65
2022-10-23T14:13:42.229Z,64.77
2022-10-23T14:16:12.003Z,65.04
2022-10-23T14:18:39.249Z,65.14
2022-10-23T14:21:10.397Z,65.18
2022-10-23T14:23:37.284Z,65.89
2022-10-23T14:26:12.975Z,67.15
2022-10-23T14:28:39.972Z,67.55
2022-10-23T14:31:12.861Z,68.04
2022-10-23T14:33:40.074Z,68.57
2022-10-23T14:36:07.174Z,69.05
2022-10-23T14:38:33.996Z,69.51
2022-10-23T14:41:01.257Z,70.21
2022-10-23T14:43:27.902Z,70.77
2022-10-23T14:45:54.622Z,71.21
2022-10-23T14:48:21.308Z,71.66
2022-10-23T14:50:49.241Z,71.76
2022-10-23T14:53:16.246Z,72.00
2022-10-23T14:55:42.941Z,72.50
2022-10-23T14:58:09.844Z,73.48
2022-10-23T15:00:36.546Z,74.37
2022-10-23T15:03:03.378Z,74.23
2022-10-23T15:05:30.030Z,73.78
2022-10-23T15:07:58.404Z,72.57
2022-10-23T15:10:25.115Z,72.57
2022-10-23T15:12:51.879Z,71.80
2022-10-23T15:15:18.723Z,71.67
2022-10-23T15:17:45.464Z,72.20
2022-10-23T15:20:12.344Z,70.95
2022-10-23T15:22:39.162Z,71.14
2022-10-23T15:25:06.728Z,71.14
2022-10-23T15:27:33.421Z,70.98
2022-10-23T15:30:00.106Z,70.51
2022-10-23T15:32:26.898Z,70.58
2022-10-23T15:34:54.683Z,70.69
2022-10-23T15:37:21.376Z,70.68
2022-10-23T15:39:48.163Z,70.45
2022-10-23T15:42:14.963Z,68.76
2022-10-23T15:44:41.647Z,68.43
2022-10-23T15:47:08.335Z,68.09
2022-10-23T15:49:35.315Z,68.26
2022-10-23T15:52:04.011Z,67.83
2022-10-23T15:54:32.820Z,67.06
2022-10-23T15:57:00.329Z,66.47
2022-10-23T15:59:29.567Z,67.13
2022-10-23T16:01:56.516Z,66.08
2022-10-23T16:04:23.313Z,66.60
2022-10-23T16:06:50.269Z,66.00
2022-10-23T16:09:17.317Z,66.38
2022-10-23T16:11:44.426Z,65.84
2022-10-23T16:14:16.232Z,65.69
2022-10-23T16:16:43.167Z,66.08
2022-10-23T16:19:11.047Z,66.60
2022-10-23T16:21:37.735Z,66.96
2022-10-23T16:24:08.019Z,66.73
2022-10-23T16:26:35.488Z,66.80
2022-10-23T16:29:05.407Z,66.80
2022-10-23T16:31:32.615Z,67.19
2022-10-23T16:34:01.145Z,66.87
2022-10-23T16:36:28.890Z,66.60
2022-10-23T16:38:55.831Z,66.44
2022-10-23T16:41:22.533Z,68.14
2022-10-23T16:43:49.392Z,66.67
2022-10-23T16:46:19.160Z,66.40
2022-10-23T16:48:46.988Z,65.70
2022-10-23T16:51:16.984Z,66.22
2022-10-23T16:53:45.103Z,66.70
2022-10-23T16:56:15.196Z,66.50
2022-10-23T16:58:42.963Z,66.44
2022-10-23T17:01:13.043Z,66.46
2022-10-23T17:03:42.553Z,66.19
2022-10-23T17:06:12.302Z,66.25
2022-10-23T17:08:39.657Z,66.37
2022-10-23T17:11:17.011Z,65.85
2022-10-23T17:13:47.016Z,65.87
2022-10-23T17:16:23.222Z,65.54
2022-10-23T17:18:50.550Z,65.66
2022-10-23T17:21:20.419Z,65.89
2022-10-23T17:23:48.058Z,65.80
2022-10-23T17:26:18.488Z,65.90
2022-10-23T17:28:48.609Z,65.42
2022-10-23T17:31:22.406Z,64.58
2022-10-23T17:33:51.516Z,64.28
2022-10-23T17:36:20.090Z,63.98
2022-10-23T17:38:46.891Z,64.12
2022-10-23T17:41:15.794Z,63.75
2022-10-23T17:43:42.929Z,64.09
2022-10-23T17:46:11.190Z,64.55
2022-10-23T17:48:43.619Z,65.25
2022-10-23T17:51:12.218Z,66.56
2022-10-23T17:53:41.462Z,67.18
2022-10-23T17:56:11.621Z,66.97
2022-10-23T17:58:39.397Z,65.36
2022-10-23T18:01:08.250Z,65.57
2022-10-23T18:03:36.334Z,66.22
2022-10-23T18:06:11.430Z,68.66
2022-10-23T18:08:39.558Z,72.61
2022-10-23T18:11:07.085Z,75.79
2022-10-23T18:13:36.592Z,79.91
2022-10-23T18:16:05.756Z,81.39
2022-10-23T18:18:33.776Z,83.53
2022-10-23T18:21:02.145Z,85.91
2022-10-23T18:23:30.066Z,87.25
2022-10-23T18:25:58.199Z,88.42
2022-10-23T18:28:25.912Z,89.00
2022-10-23T18:30:56.118Z,89.88
2022-10-23T18:33:24.236Z,91.50
2022-10-23T18:35:50.880Z,92.10
2022-10-23T18:38:17.665Z,92.66
2022-10-23T18:40:44.695Z,94.14
2022-10-23T18:43:15.268Z,94.95
2022-10-23T18:45:46.703Z,95.59
2022-10-23T18:48:13.864Z,96.64
2022-10-23T18:50:40.572Z,97.13
2022-10-23T18:53:07.314Z,97.14
2022-10-23T18:58:01.043Z,97.48
2022-10-23T19:00:27.774Z,98.62
2022-10-23T19:02:55.088Z,99.33
2022-10-23T19:05:21.845Z,99.92
2022-10-23T19:07:49.866Z,100.00
2022-10-23T19:10:19.315Z,100.00
2022-10-23T19:12:46.491Z,100.00
2022-10-23T19:15:14.826Z,100.00
2022-10-23T19:17:41.545Z,100.00
2022-10-23T19:20:14.667Z,100.00
2022-10-23T19:22:44.728Z,100.00
2022-10-23T19:25:15.130Z,100.00
2022-10-23T19:27:44.423Z,100.00
2022-10-23T19:30:13.565Z,100.00
2022-10-23T19:32:45.261Z,100.00
2022-10-23T19:35:13.714Z,100.00
2022-10-23T19:37:40.536Z,100.00
2022-10-23T19:40:09.075Z,100.00
2022-10-23T19:42:38.219Z,100.00
2022-10-23T19:45:07.377Z,100.00
2022-10-23T19:47:34.591Z,100.00
2022-10-23T19:50:01.447Z,100.00
2022-10-23T19:52:28.120Z,100.00
2022-10-23T19:54:54.843Z,100.00
2022-10-23T19:57:22.656Z,100.00
2022-10-23T19:59:50.718Z,100.00
2022-10-23T20:02:19.190Z,100.00
2022-10-23T20:04:46.665Z,100.00
2022-10-23T20:07:13.565Z,100.00
2022-10-23T20:09:40.528Z,100.00
2022-10-23T20:12:07.365Z,100.00
2022-10-23T20:14:34.404Z,100.00
2022-10-23T20:17:01.532Z,100.00
2022-10-23T20:19:28.808Z,99.97
2022-10-23T20:21:55.519Z,100.00
2022-10-23T20:24:22.622Z,100.00
2022-10-23T20:26:53.339Z,100.00
2022-10-23T20:29:21.312Z,100.00
2022-10-23T20:31:48.513Z,100.00
2022-10-23T20:34:15.277Z,100.00
2022-10-23T20:36:46.621Z,100.00
2022-10-23T20:39:19.949Z,100.00
2022-10-23T20:41:47.713Z,100.00
2022-10-23T20:46:44.738Z,97.37
2022-10-23T20:49:13.076Z,94.94
2022-10-23T20:51:40.181Z,94.16
2022-10-23T20:54:06.947Z,92.47
2022-10-23T20:56:36.770Z,91.76
2022-10-23T20:59:06.280Z,92.08
2022-10-23T21:01:34.503Z,92.12
2022-10-23T21:04:03.164Z,90.71
2022-10-23T21:06:45.695Z,90.64
2022-10-23T21:09:20.654Z,91.13
2022-10-23T21:11:47.364Z,91.44
2022-10-23T21:14:14.076Z,92.29
2022-10-23T21:16:44.255Z,92.58
2022-10-23T21:19:13.936Z,92.82
2022-10-23T21:21:40.603Z,94.76
2022-10-23T21:24:10.344Z,96.47
2022-10-23T21:26:37.089Z,96.58
2022-10-23T21:29:17.873Z,96.29
2022-10-23T21:31:45.607Z,98.00
2022-10-23T21:34:12.533Z,96.69
2022-10-23T21:36:53.983Z,98.49
2022-10-23T21:39:26.395Z,97.95
2022-10-23T21:41:53.183Z,99.61
2022-10-23T21:44:19.880Z,98.92
2022-10-23T21:46:46.963Z,99.88
2022-10-23T21:49:13.673Z,95.44
2022-10-23T21:51:40.649Z,90.02
2022-10-23T21:54:11.569Z,86.54
2022-10-23T21:56:50.293Z,83.89
2022-10-23T21:59:19.654Z,82.96
2022-10-23T22:01:48.403Z,82.22
2022-10-23T22:04:17.381Z,81.71
2022-10-23T22:06:45.101Z,80.28
2022-10-23T22:09:14.342Z,78.47
2022-10-23T22:11:41.534Z,77.69
2022-10-23T22:14:08.838Z,77.18
2022-10-23T22:16:35.584Z,77.65
2022-10-23T22:19:02.514Z,77.17
2022-10-23T22:21:30.549Z,76.97
2022-10-23T22:23:58.855Z,76.14
2022-10-23T22:26:29.584Z,75.05
2022-10-23T22:28:59.728Z,75.21
2022-10-23T22:31:30.454Z,75.62
2022-10-23T22:33:57.676Z,75.59
2022-10-23T22:36:25.703Z,75.62
2022-10-23T22:38:53.289Z,76.20
2022-10-23T22:41:20.299Z,74.99
2022-10-23T22:43:47.306Z,75.17
2022-10-23T22:46:16.826Z,75.04
2022-10-23T22:48:44.374Z,75.42
2022-10-23T22:51:13.421Z,75.71
2022-10-23T22:53:40.352Z,76.29
2022-10-23T22:56:08.810Z,76.76
2022-10-23T22:58:36.044Z,78.64
2022-10-23T23:01:14.076Z,80.04
2022-10-23T23:03:40.943Z,80.78
2022-10-23T23:06:08.599Z,80.79
2022-10-23T23:08:36.794Z,81.12
2022-10-23T23:11:04.723Z,81.84
2022-10-23T23:13:31.910Z,82.79
2022-10-23T23:15:58.919Z,83.21
2022-10-23T23:18:25.809Z,83.89
2022-10-23T23:20:52.536Z,84.69
2022-10-23T23:23:19.567Z,87.07
2022-10-23T23:25:48.487Z,87.54
2022-10-23T23:28:17.764Z,87.59
2022-10-23T23:33:13.555Z,88.82
2022-10-23T23:35:42.830Z,89.75
2022-10-23T23:38:10.300Z,90.19
2022-10-23T23:40:37.752Z,88.39
2022-10-23T23:43:05.173Z,89.06
2022-10-23T23:45:32.553Z,88.77
2022-10-23T23:47:59.288Z,88.74
2022-10-23T23:50:27.830Z,88.78
2022-10-23T23:52:54.601Z,89.01
2022-10-23T23:55:21.364Z,89.15
2022-10-23T23:57:48.175Z,89.79
